Tawakoni's Hourly Summary for Tuesday, April 18, 2017
Hour Temp
(f)
RH
(%)
Solar Rad.
(MJ/m2)
Rainfall
(in)
Wind
(mph)
4/18/2017 12:00 AM 63 95 0.02 0 2.72
4/18/2017 1:00 AM 64 95 0.02 0 3.37
4/18/2017 2:00 AM 63 95 0.02 0 2.99
4/18/2017 3:00 AM 64 95 0.02 0 1.64
4/18/2017 4:00 AM 63 96 0.02 0.01 2.44
4/18/2017 5:00 AM 63 96 0.02 0 1.95
4/18/2017 6:00 AM 63 96 0.02 0 1.36
4/18/2017 7:00 AM 63 96 0.02 0 1.79
4/18/2017 8:00 AM 63 96 0.14 0 0.74
4/18/2017 9:00 AM 64 96 0.37 0 1.68
4/18/2017 10:00 AM 67 81 1.1 0 2.72
4/18/2017 11:00 AM 70 74 1.25 0 2.79
4/18/2017 12:00 PM 73 62 2.73 0 4.34
4/18/2017 1:00 PM 74 61 2 0 4.2
4/18/2017 2:00 PM 74 59 1.82 0 4.96
4/18/2017 3:00 PM 77 52 2.58 0 4
4/18/2017 4:00 PM 78 52 2.43 0 4.58
4/18/2017 5:00 PM 79 49 2.07 0 3.93
4/18/2017 6:00 PM 78 51 1.52 0 5.2
4/18/2017 7:00 PM 70 56 0.62 0.01 8.65
4/18/2017 8:00 PM 67 86 0.16 0 4.09
4/18/2017 9:00 PM 65 89 0.01 0 2.62
4/18/2017 10:00 PM 64 91 0.01 0 2.38
4/18/2017 11:00 PM 65 88 0.01 0 3.46
Data Summary 68 79 18.98 0.02 3.28